Time;durP1;ratioP1;P1;durP2;ratioP2;P2;SDS_P1;SDS_P2;PMS_P1;PMS_P2;Temp;Humidity;BMP_temperature;BMP_pressure;BME280_temperature;BME280_humidity;BME280_pressure;Samples;Min_cycle;Max_cycle;Signal;HPM_P1;HPM_P2
2021/06/06 00:01:47;;;;;;;;;;;;;;;23.90;40.79;100336.22;1768030;81;20126;-77
2021/06/06 00:04:15;;;;;;;;;;;;;;;23.88;40.38;100341.09;1767766;81;20415;-76
2021/06/06 00:06:41;;;;;;;;;;;;;;;23.89;40.06;100337.82;1767104;81;20423;-77
2021/06/06 00:09:11;;;;;;;;;;;;;;;23.87;39.73;100327.14;1767511;81;20275;-77
2021/06/06 00:11:45;;;;;;;;;;;;;;;23.87;39.57;100330.41;1767228;81;20525;-77
2021/06/06 00:14:15;;;;;;;;;;;;;;;23.88;39.67;100329.33;1767515;81;20180;-77
2021/06/06 00:16:46;;;;;;;;;;;;;;;23.87;39.31;100329.05;1767067;81;20133;-77
2021/06/06 00:19:15;;;;;;;;;;;;;;;23.87;39.24;100328.50;1766911;81;20211;-77
2021/06/06 00:21:42;;;;;;;;;;;;;;;23.87;39.45;100330.41;1767137;81;20197;-77
2021/06/06 00:24:11;;;;;;;;;;;;;;;23.86;39.53;100325.48;1767043;81;20137;-78
2021/06/06 00:26:38;;;;;;;;;;;;;;;23.87;39.55;100326.31;1767233;81;20419;-78
2021/06/06 00:29:05;;;;;;;;;;;;;;;23.86;39.77;100320.56;1767552;81;20133;-77
2021/06/06 00:31:33;;;;;;;;;;;;;;;23.85;40.08;100319.73;1767239;81;20204;-77
2021/06/06 00:33:59;;;;;;;;;;;;;;;23.84;40.26;100322.16;1767509;81;20153;-77
2021/06/06 00:36:26;;;;;;;;;;;;;;;23.79;40.55;100321.53;1767293;81;20173;-77
2021/06/06 00:38:53;;;;;;;;;;;;;;;23.75;40.72;100320.40;1766105;81;20137;-77
2021/06/06 00:41:21;;;;;;;;;;;;;;;23.71;40.68;100323.84;1766530;81;20165;-77
2021/06/06 00:43:49;;;;;;;;;;;;;;;23.68;40.94;100318.36;1766291;81;20466;-77
2021/06/06 00:46:16;;;;;;;;;;;;;;;23.64;41.08;100319.92;1765720;81;20168;-76
2021/06/06 00:48:43;;;;;;;;;;;;;;;23.60;41.24;100321.45;1765750;81;20176;-76
2021/06/06 00:51:15;;;;;;;;;;;;;;;23.57;41.52;100329.32;1766833;81;20085;-77
2021/06/06 00:53:48;;;;;;;;;;;;;;;23.52;41.70;100327.33;1765407;81;20477;-77
2021/06/06 00:56:18;;;;;;;;;;;;;;;23.51;41.78;100330.60;1766112;81;20438;-77
2021/06/06 00:58:46;;;;;;;;;;;;;;;23.50;41.86;100330.86;1766012;81;20216;-77
2021/06/06 01:01:14;;;;;;;;;;;;;;;23.49;42.01;100340.14;1771939;81;20192;-77
2021/06/06 01:03:46;;;;;;;;;;;;;;;23.47;42.16;100338.17;1766033;80;20192;-77
2021/06/06 01:06:19;;;;;;;;;;;;;;;23.45;42.30;100335.70;1766063;81;20592;-77
2021/06/06 01:08:45;;;;;;;;;;;;;;;23.41;42.43;100337.80;1767066;81;20129;-77
2021/06/06 01:11:21;;;;;;;;;;;;;;;23.37;42.39;100340.19;1766771;81;20482;-77
2021/06/06 01:13:54;;;;;;;;;;;;;;;23.35;42.40;100344.27;1762964;81;20164;-77
2021/06/06 01:16:29;;;;;;;;;;;;;;;23.32;42.51;100339.28;1791271;80;20540;-77
2021/06/06 01:18:59;;;;;;;;;;;;;;;23.27;42.54;100336.73;1765638;80;20193;-77
2021/06/06 01:21:40;;;;;;;;;;;;;;;23.24;42.68;100341.86;1765803;81;20157;-77
2021/06/06 01:24:17;;;;;;;;;;;;;;;23.18;42.89;100338.20;1765748;81;20340;-76
2021/06/06 01:27:01;;;;;;;;;;;;;;;23.13;43.25;100338.66;1766066;81;20145;-77
2021/06/06 01:29:36;;;;;;;;;;;;;;;23.09;43.41;100339.67;1766458;80;20176;-75
2021/06/06 01:32:21;;;;;;;;;;;;;;;23.03;43.13;100333.83;1765987;81;20212;-78
2021/06/06 01:35:00;;;;;;;;;;;;;;;22.93;42.93;100336.33;1765837;81;20219;-76
2021/06/06 01:37:27;;;;;;;;;;;;;;;22.83;43.15;100336.09;1772996;81;20431;-77
2021/06/06 01:39:59;;;;;;;;;;;;;;;22.78;43.27;100334.09;1767201;81;20157;-76
2021/06/06 01:42:29;;;;;;;;;;;;;;;22.73;43.46;100338.91;1793056;80;20177;-77
2021/06/06 01:44:59;;;;;;;;;;;;;;;22.71;43.75;100338.84;1767374;81;20137;-76
2021/06/06 01:47:27;;;;;;;;;;;;;;;22.67;44.03;100333.06;1767410;81;20181;-76
2021/06/06 01:49:59;;;;;;;;;;;;;;;22.66;44.20;100332.74;1767239;81;20149;-78
2021/06/06 01:52:29;;;;;;;;;;;;;;;22.64;44.19;100332.70;1767021;81;20189;-76
2021/06/06 01:54:58;;;;;;;;;;;;;;;22.63;44.08;100329.69;1793181;80;20150;-77
2021/06/06 01:57:25;;;;;;;;;;;;;;;22.59;43.88;100327.97;1767491;81;20141;-77
2021/06/06 01:59:54;;;;;;;;;;;;;;;22.53;43.69;100323.48;1774270;79;20419;-78
2021/06/06 02:02:21;;;;;;;;;;;;;;;22.46;43.60;100324.95;1769180;81;20142;-78
2021/06/06 02:04:48;;;;;;;;;;;;;;;22.39;43.71;100323.41;1768797;81;20157;-78
2021/06/06 02:07:29;;;;;;;;;;;;;;;22.35;43.78;100323.09;1767527;81;20422;-79
2021/06/06 02:10:25;;;;;;;;;;;;;;;22.34;44.04;100327.40;1767302;80;20137;-78
2021/06/06 02:12:55;;;;;;;;;;;;;;;22.30;44.16;100327.04;1767282;81;20180;-77
2021/06/06 02:15:30;;;;;;;;;;;;;;;22.31;44.46;100327.90;1792407;80;20426;-76
2021/06/06 02:18:12;;;;;;;;;;;;;;;22.32;44.47;100324.09;1767497;79;20173;-77
2021/06/06 02:20:41;;;;;;;;;;;;;;;22.33;44.31;100317.56;1766519;81;20274;-77
2021/06/06 02:23:09;;;;;;;;;;;;;;;22.34;44.33;100327.40;1765857;81;20486;-77
2021/06/06 02:25:37;;;;;;;;;;;;;;;22.34;44.22;100326.86;1750150;81;20167;-77
2021/06/06 02:28:25;;;;;;;;;;;;;;;22.34;44.26;100326.86;1741766;82;20179;-76
2021/06/06 02:31:04;;;;;;;;;;;;;;;22.34;44.32;100325.50;1742440;82;20202;-76
2021/06/06 02:33:43;;;;;;;;;;;;;;;22.33;44.42;100323.02;1732108;82;20245;-76
2021/06/06 02:36:14;;;;;;;;;;;;;;;22.33;44.66;100318.92;1743847;80;20162;-76
2021/06/06 02:38:53;;;;;;;;;;;;;;;22.34;44.60;100321.94;1768619;80;20194;-76
2021/06/06 02:41:27;;;;;;;;;;;;;;;22.29;44.63;100324.84;1743754;82;20155;-76
2021/06/06 02:44:13;;;;;;;;;;;;;;;22.27;44.72;100322.91;1745743;80;20127;-76
2021/06/06 02:46:42;;;;;;;;;;;;;;;22.28;44.91;100325.09;1744360;80;20178;-76
2021/06/06 02:49:13;;;;;;;;;;;;;;;22.27;45.00;100324.27;1744258;82;20167;-77
2021/06/06 02:51:48;;;;;;;;;;;;;;;22.29;45.35;100322.66;1744521;80;20140;-76
2021/06/06 02:54:18;;;;;;;;;;;;;;;22.30;45.47;100320.22;1743644;82;20135;-76
2021/06/06 02:56:49;;;;;;;;;;;;;;;22.33;45.52;100321.66;1744568;82;20128;-76
2021/06/06 02:59:23;;;;;;;;;;;;;;;22.35;45.61;100318.17;1744531;82;20139;-76
2021/06/06 03:01:53;;;;;;;;;;;;;;;22.36;45.66;100317.09;1744369;82;20139;-75
2021/06/06 03:04:23;;;;;;;;;;;;;;;22.37;45.68;100320.94;1744544;82;20151;-75
2021/06/06 03:06:54;;;;;;;;;;;;;;;22.38;45.68;100322.59;1769123;80;20131;-76
2021/06/06 03:09:22;;;;;;;;;;;;;;;22.42;45.71;100310.67;1743880;82;20164;-76
2021/06/06 03:11:52;;;;;;;;;;;;;;;22.44;45.77;100316.20;1744450;82;20131;-75
2021/06/06 03:14:21;;;;;;;;;;;;;;;22.48;45.88;100321.98;1744498;82;20148;-75
2021/06/06 03:16:58;;;;;;;;;;;;;;;22.48;45.78;100316.52;1744182;82;20164;-76
2021/06/06 03:19:27;;;;;;;;;;;;;;;22.51;45.71;100322.88;1744079;82;20135;-75
2021/06/06 03:21:56;;;;;;;;;;;;;;;22.54;45.53;100321.04;1744451;82;20420;-75
2021/06/06 03:24:31;;;;;;;;;;;;;;;22.56;45.45;100320.25;1744579;82;20163;-77
2021/06/06 03:26:58;;;;;;;;;;;;;;;22.62;45.60;100326.64;1744471;82;20143;-76
2021/06/06 03:29:27;;;;;;;;;;;;;;;22.65;45.49;100320.70;1744301;82;20124;-77
2021/06/06 03:31:58;;;;;;;;;;;;;;;22.67;45.57;100331.70;1744832;82;20148;-77
2021/06/06 03:34:25;;;;;;;;;;;;;;;22.71;45.74;100326.05;1745277;82;20135;-75
2021/06/06 03:36:52;;;;;;;;;;;;;;;22.74;46.08;100326.09;1745354;82;20175;-77
2021/06/06 03:39:33;;;;;;;;;;;;;;;22.76;46.40;100326.16;1680343;82;20171;-77
2021/06/06 03:42:01;;;;;;;;;;;;;;;22.78;46.68;100324.00;1744380;82;20405;-77
2021/06/06 03:44:29;;;;;;;;;;;;;;;22.80;46.78;100327.87;1744213;82;20125;-76
2021/06/06 03:46:57;;;;;;;;;;;;;;;22.85;46.71;100331.23;1744217;82;20136;-76
2021/06/06 03:49:24;;;;;;;;;;;;;;;22.87;46.59;100326.35;1743774;82;20219;-76
2021/06/06 03:51:50;;;;;;;;;;;;;;;22.90;46.60;100325.91;1743921;82;20143;-76
2021/06/06 03:54:17;;;;;;;;;;;;;;;22.93;46.53;100326.23;1744130;82;20143;-76
2021/06/06 03:56:44;;;;;;;;;;;;;;;22.96;46.49;100327.12;1744478;82;20182;-77
2021/06/06 03:59:12;;;;;;;;;;;;;;;23.00;46.41;100326.10;1744493;82;20143;-76
2021/06/06 04:01:40;;;;;;;;;;;;;;;23.02;46.44;100327.50;1744206;82;20143;-76
2021/06/06 04:04:07;;;;;;;;;;;;;;;23.03;46.54;100326.45;1744726;82;20164;-76
2021/06/06 04:06:34;;;;;;;;;;;;;;;23.04;46.73;100336.30;1742803;82;20179;-76
2021/06/06 04:09:04;;;;;;;;;;;;;;;23.06;46.90;100345.61;1742953;82;20198;-76
2021/06/06 04:11:32;;;;;;;;;;;;;;;23.08;47.04;100341.29;1768619;80;20503;-76
2021/06/06 04:14:01;;;;;;;;;;;;;;;23.41;46.62;100343.27;1743009;82;20150;-77
2021/06/06 04:16:30;;;;;;;;;;;;;;;23.57;46.40;100346.55;1742954;82;20191;-77
2021/06/06 04:18:58;;;;;;;;;;;;;;;23.61;46.26;100344.16;1742908;82;20175;-76
2021/06/06 04:21:28;;;;;;;;;;;;;;;23.61;45.40;100340.06;1743700;82;20479;-76
2021/06/06 04:23:56;;;;;;;;;;;;;;;23.64;44.36;100343.16;1744279;82;20182;-76
2021/06/06 04:26:23;;;;;;;;;;;;;;;23.65;43.75;100337.16;1743612;82;20479;-76
2021/06/06 04:28:51;;;;;;;;;;;;;;;23.65;43.03;100333.05;1743469;82;20159;-76
2021/06/06 04:31:18;;;;;;;;;;;;;;;23.64;42.05;100332.23;1744295;82;20167;-76
2021/06/06 04:33:45;;;;;;;;;;;;;;;23.64;41.25;100337.70;1744439;82;20123;-76
2021/06/06 04:36:12;;;;;;;;;;;;;;;23.64;40.90;100333.59;1743297;82;20562;-76
2021/06/06 04:38:38;;;;;;;;;;;;;;;23.65;40.70;100339.34;1744391;82;20147;-76
2021/06/06 04:41:08;;;;;;;;;;;;;;;23.64;40.58;100339.58;1744395;82;20148;-76
2021/06/06 04:43:35;;;;;;;;;;;;;;;23.63;40.41;100338.75;1769885;80;20159;-76
2021/06/06 04:46:03;;;;;;;;;;;;;;;23.62;40.39;100346.67;1744015;82;20182;-77
2021/06/06 04:48:33;;;;;;;;;;;;;;;23.67;40.20;100348.16;1743735;82;20484;-77
2021/06/06 04:51:01;;;;;;;;;;;;;;;23.57;40.39;100347.92;1744063;82;20195;-76
2021/06/06 04:53:29;;;;;;;;;;;;;;;23.38;40.92;100352.78;1769239;80;20126;-76
2021/06/06 04:55:58;;;;;;;;;;;;;;;23.36;40.86;100351.38;1769682;80;20129;-76
2021/06/06 04:58:29;;;;;;;;;;;;;;;23.35;40.74;100349.73;1744440;82;20127;-77
2021/06/06 05:00:56;;;;;;;;;;;;;;;23.32;40.72;100344.20;1769510;80;20143;-77
2021/06/06 05:03:25;;;;;;;;;;;;;;;23.33;40.95;100351.86;1744541;82;20151;-76
2021/06/06 05:05:51;;;;;;;;;;;;;;;23.35;40.78;100342.89;1748262;82;20152;-77
2021/06/06 05:08:20;;;;;;;;;;;;;;;23.35;40.18;100349.19;1744328;82;20138;-77
2021/06/06 05:10:47;;;;;;;;;;;;;;;23.36;40.13;100345.91;1744672;82;20139;-76
2021/06/06 05:13:15;;;;;;;;;;;;;;;23.36;39.94;100346.74;1744292;82;20163;-76
2021/06/06 05:15:43;;;;;;;;;;;;;;;23.39;39.62;100344.89;1744879;80;20156;-77
2021/06/06 05:18:11;;;;;;;;;;;;;;;23.41;39.57;100343.27;1744337;82;20421;-76
2021/06/06 05:20:43;;;;;;;;;;;;;;;23.44;39.07;100347.72;1751717;81;20183;-76
2021/06/06 05:23:12;;;;;;;;;;;;;;;23.45;38.79;100349.91;1744332;81;20170;-76
2021/06/06 05:25:40;;;;;;;;;;;;;;;23.45;38.04;100345.81;1750586;81;20198;-76
2021/06/06 05:28:08;;;;;;;;;;;;;;;23.44;37.98;100336.78;1743005;82;20143;-76
2021/06/06 05:30:35;;;;;;;;;;;;;;;23.47;37.97;100343.64;1742797;82;20178;-78
2021/06/06 05:33:03;;;;;;;;;;;;;;;23.49;38.06;100348.34;1742009;82;20174;-76
2021/06/06 05:35:32;;;;;;;;;;;;;;;23.50;38.02;100350.83;1741452;82;20163;-77
2021/06/06 05:38:00;;;;;;;;;;;;;;;23.51;38.02;100346.18;1740945;82;20163;-76
2021/06/06 05:40:27;;;;;;;;;;;;;;;23.52;37.65;100350.03;1741124;82;20177;-76
2021/06/06 05:42:53;;;;;;;;;;;;;;;23.52;37.31;100351.39;1741412;82;20174;-76
2021/06/06 05:45:22;;;;;;;;;;;;;;;23.53;37.33;100348.15;1741540;82;20170;-79
2021/06/06 05:47:48;;;;;;;;;;;;;;;23.53;37.41;100346.78;1742757;82;20172;-76
2021/06/06 05:50:17;;;;;;;;;;;;;;;23.53;37.47;100346.24;1765139;80;20164;-76
2021/06/06 05:52:45;;;;;;;;;;;;;;;23.54;37.73;100349.80;1771717;80;20458;-76
2021/06/06 05:55:13;;;;;;;;;;;;;;;23.56;37.82;100346.27;1771757;81;20196;-78
2021/06/06 05:57:39;;;;;;;;;;;;;;;23.60;38.17;100350.17;1772028;81;20081;-77
2021/06/06 06:00:09;;;;;;;;;;;;;;;23.64;38.58;100352.73;1771686;81;20258;-78
2021/06/06 06:02:37;;;;;;;;;;;;;;;23.70;38.61;100355.02;1772295;81;20154;-77
2021/06/06 06:05:04;;;;;;;;;;;;;;;23.73;38.55;100353.16;1773048;81;20270;-77
2021/06/06 06:07:30;;;;;;;;;;;;;;;23.74;38.54;100357.01;1773596;81;20423;-79
2021/06/06 06:09:58;;;;;;;;;;;;;;;23.75;38.69;100354.59;1772487;81;20189;-76
2021/06/06 06:12:26;;;;;;;;;;;;;;;23.77;38.72;100357.89;1772632;81;20470;-78
2021/06/06 06:14:52;;;;;;;;;;;;;;;23.79;38.67;100356.27;1771942;81;20147;-78
2021/06/06 06:17:19;;;;;;;;;;;;;;;23.81;38.64;100353.30;1772810;81;20292;-78
2021/06/06 06:19:45;;;;;;;;;;;;;;;23.82;38.98;100348.94;1772515;81;20201;-78
2021/06/06 06:22:12;;;;;;;;;;;;;;;23.85;39.10;100357.20;1773416;81;20145;-78
2021/06/06 06:24:38;;;;;;;;;;;;;;;23.86;39.30;100346.55;1747510;81;20303;-78
2021/06/06 06:27:05;;;;;;;;;;;;;;;23.89;39.44;100359.70;1744091;82;20166;-78
2021/06/06 06:29:42;;;;;;;;;;;;;;;23.92;39.75;100351.02;1744045;82;20215;-79
2021/06/06 06:32:13;;;;;;;;;;;;;;;23.93;39.93;100352.66;1748070;80;20220;-79
2021/06/06 06:34:41;;;;;;;;;;;;;;;23.94;39.77;100359.27;1746710;81;20174;-79
2021/06/06 06:37:08;;;;;;;;;;;;;;;23.91;39.56;100356.20;1745566;81;20266;-78
2021/06/06 06:39:35;;;;;;;;;;;;;;;23.94;39.72;100358.45;1745074;81;20212;-78
2021/06/06 06:42:02;;;;;;;;;;;;;;;23.96;39.98;100350.80;1744477;81;20773;-78
2021/06/06 06:44:28;;;;;;;;;;;;;;;23.95;40.11;100351.34;1744910;82;20508;-78
2021/06/06 06:46:56;;;;;;;;;;;;;;;23.98;40.10;100351.38;1745626;81;20161;-78
2021/06/06 06:49:24;;;;;;;;;;;;;;;24.01;40.27;100353.08;1745330;81;20220;-78
2021/06/06 06:51:50;;;;;;;;;;;;;;;24.01;40.08;100346.78;1710522;82;20442;-78
2021/06/06 06:54:16;;;;;;;;;;;;;;;24.02;40.06;100349.80;1749497;81;20159;-77
2021/06/06 06:56:42;;;;;;;;;;;;;;;24.03;40.35;100348.74;1758485;81;20551;-77
2021/06/06 06:59:08;;;;;;;;;;;;;;;24.04;40.79;100349.85;1772249;81;20187;-78
2021/06/06 07:01:34;;;;;;;;;;;;;;;24.05;40.57;100346.57;1766537;81;20760;-78
2021/06/06 07:04:00;;;;;;;;;;;;;;;24.04;40.79;100353.13;1764332;79;20178;-77
2021/06/06 07:06:27;;;;;;;;;;;;;;;24.04;40.48;100350.39;1743160;82;20155;-77
2021/06/06 07:08:53;;;;;;;;;;;;;;;24.05;40.73;100352.87;1742251;82;20203;-77
2021/06/06 07:11:22;;;;;;;;;;;;;;;24.05;40.40;100352.05;1742505;82;20206;-77
2021/06/06 07:13:48;;;;;;;;;;;;;;;24.06;40.18;100352.33;1743007;82;20144;-77
2021/06/06 07:16:17;;;;;;;;;;;;;;;24.04;40.47;100354.50;1742010;82;20198;-77
2021/06/06 07:18:45;;;;;;;;;;;;;;;24.06;40.62;100348.22;1742698;82;20174;-76
2021/06/06 07:21:16;;;;;;;;;;;;;;;24.05;40.69;100350.14;1742598;82;20155;-77
2021/06/06 07:23:42;;;;;;;;;;;;;;;24.05;40.97;100347.40;1742858;82;20225;-77
2021/06/06 07:26:12;;;;;;;;;;;;;;;24.02;40.78;100341.59;1742929;82;20159;-77
2021/06/06 07:28:38;;;;;;;;;;;;;;;24.03;40.57;100347.38;1742639;82;20199;-77
2021/06/06 07:31:05;;;;;;;;;;;;;;;24.03;40.84;100352.30;1742907;82;20213;-77
2021/06/06 07:33:35;;;;;;;;;;;;;;;24.03;40.77;100346.83;1752299;80;20482;-77
2021/06/06 07:36:03;;;;;;;;;;;;;;;24.04;40.78;100357.23;1742595;82;20186;-77
2021/06/06 07:38:29;;;;;;;;;;;;;;;24.05;41.21;100361.63;1743027;81;20500;-78
2021/06/06 07:40:56;;;;;;;;;;;;;;;24.06;41.10;100357.80;1742755;82;20216;-78
2021/06/06 07:43:23;;;;;;;;;;;;;;;24.07;41.18;100352.61;1743087;82;20163;-77
2021/06/06 07:45:49;;;;;;;;;;;;;;;24.08;41.22;100351.55;1742622;82;20249;-77
2021/06/06 07:48:15;;;;;;;;;;;;;;;24.12;41.49;100351.86;1742985;82;20170;-77
2021/06/06 07:50:43;;;;;;;;;;;;;;;24.16;41.55;100355.22;1742393;82;20170;-77
2021/06/06 07:53:10;;;;;;;;;;;;;;;24.16;41.54;100356.58;1754399;81;20501;-77
2021/06/06 07:55:37;;;;;;;;;;;;;;;24.21;41.72;100355.83;1764944;81;20154;-77
2021/06/06 07:58:03;;;;;;;;;;;;;;;24.24;41.61;100361.64;1764646;81;20250;-77
2021/06/06 08:00:33;;;;;;;;;;;;;;;24.29;41.23;100367.19;1763568;81;20164;-76
2021/06/06 08:02:59;;;;;;;;;;;;;;;24.33;41.39;100363.95;1764185;81;20493;-76
2021/06/06 08:05:26;;;;;;;;;;;;;;;24.38;41.43;100370.91;1749459;80;20241;-77
2021/06/06 08:07:53;;;;;;;;;;;;;;;24.43;41.99;100362.76;1733152;82;20546;-77
2021/06/06 08:10:23;;;;;;;;;;;;;;;24.50;42.32;100365.62;1733572;82;20170;-76
2021/06/06 08:12:49;;;;;;;;;;;;;;;24.58;42.65;100363.00;1734238;82;20183;-76
2021/06/06 08:15:18;;;;;;;;;;;;;;;24.63;42.37;100360.32;1733783;82;20203;-77
2021/06/06 08:17:45;;;;;;;;;;;;;;;24.67;42.03;100360.11;1734484;79;20460;-76
2021/06/06 08:20:20;;;;;;;;;;;;;;;24.71;41.68;100351.67;1747068;81;20170;-76
2021/06/06 08:22:48;;;;;;;;;;;;;;;24.72;41.33;100359.34;1742873;82;20175;-76
2021/06/06 08:25:14;;;;;;;;;;;;;;;24.72;41.71;100360.71;1742942;82;20205;-76
2021/06/06 08:27:42;;;;;;;;;;;;;;;24.76;41.37;100357.75;1755717;81;20199;-76
2021/06/06 08:30:29;;;;;;;;;;;;;;;24.76;41.29;100359.95;1743231;82;20179;-76
2021/06/06 08:32:55;;;;;;;;;;;;;;;24.78;41.36;100360.51;1763974;80;20141;-77
2021/06/06 08:35:21;;;;;;;;;;;;;;;24.79;41.25;100363.53;1711116;83;20204;-76
2021/06/06 08:37:49;;;;;;;;;;;;;;;24.79;40.78;100372.30;1742784;82;20199;-76
2021/06/06 08:40:24;;;;;;;;;;;;;;;24.75;40.54;100365.15;1742666;82;20264;-77
2021/06/06 08:42:50;;;;;;;;;;;;;;;24.73;40.55;100369.20;1734246;82;20178;-76
2021/06/06 08:45:32;;;;;;;;;;;;;;;24.69;40.66;100363.95;1721211;82;20189;-76
2021/06/06 08:48:00;;;;;;;;;;;;;;;24.67;40.48;100367.50;1747313;82;21077;-76
2021/06/06 08:50:29;;;;;;;;;;;;;;;24.66;40.36;100365.27;1755863;81;20173;-77
2021/06/06 08:53:28;;;;;;;;;;;;;;;24.66;40.28;100361.70;1771929;81;20169;-77
2021/06/06 08:56:03;;;;;;;;;;;;;;;24.63;40.29;100360.86;1770855;81;20254;-77
2021/06/06 08:58:39;;;;;;;;;;;;;;;24.63;40.03;100366.34;1749797;81;20167;-77
2021/06/06 09:01:25;;;;;;;;;;;;;;;24.61;40.15;100361.09;1741767;82;20555;-76
2021/06/06 09:03:53;;;;;;;;;;;;;;;24.63;40.25;100360.86;1741335;82;20187;-76
2021/06/06 09:06:44;;;;;;;;;;;;;;;24.61;40.27;100360.27;1750012;81;20157;-77
2021/06/06 09:09:11;;;;;;;;;;;;;;;24.58;40.08;100353.41;1741712;82;20191;-77
2021/06/06 09:11:37;;;;;;;;;;;;;;;24.56;40.22;100358.30;1763019;81;20171;-77
2021/06/06 09:14:05;;;;;;;;;;;;;;;24.56;40.40;100356.92;1741025;82;20179;-76
2021/06/06 09:16:52;;;;;;;;;;;;;;;24.57;40.63;100361.31;1763155;81;20172;-77
2021/06/06 09:19:19;;;;;;;;;;;;;;;24.57;40.63;100359.12;1741417;82;20205;-78
2021/06/06 09:21:57;;;;;;;;;;;;;;;24.56;40.79;100361.03;1763292;81;20177;-78
2021/06/06 09:24:37;;;;;;;;;;;;;;;24.57;40.95;100353.64;1751436;81;20204;-77
2021/06/06 09:27:11;;;;;;;;;;;;;;;24.55;40.98;100360.20;1774560;81;21551;-76
2021/06/06 09:29:37;;;;;;;;;;;;;;;24.55;41.20;100358.84;1773705;81;20137;-76
2021/06/06 09:32:10;;;;;;;;;;;;;;;24.55;41.47;100358.02;1773139;81;20161;-77
2021/06/06 09:34:36;;;;;;;;;;;;;;;24.55;41.59;100359.38;1772002;81;20200;-77
2021/06/06 09:37:11;;;;;;;;;;;;;;;24.54;41.51;100355.82;1750952;81;20210;-78
2021/06/06 09:39:42;;;;;;;;;;;;;;;24.53;41.47;100356.91;1756285;80;20444;-77
2021/06/06 09:42:35;;;;;;;;;;;;;;;24.52;41.79;100350.30;1740629;82;20191;-79
2021/06/06 09:45:13;;;;;;;;;;;;;;;24.50;41.98;100356.58;1711352;82;20159;-77
2021/06/06 09:47:39;;;;;;;;;;;;;;;24.46;42.16;100358.16;1758157;81;20093;-79
2021/06/06 09:50:17;;;;;;;;;;;;;;;24.42;42.04;100353.72;1772269;81;20140;-77
2021/06/06 09:52:46;;;;;;;;;;;;;;;24.38;42.09;100357.22;1771127;81;20180;-77
2021/06/06 09:55:15;;;;;;;;;;;;;;;24.36;42.31;100363.47;1770337;80;20188;-76
2021/06/06 09:57:43;;;;;;;;;;;;;;;24.34;42.82;100360.95;1771109;81;20461;-76
2021/06/06 10:00:26;;;;;;;;;;;;;;;24.29;43.26;100358.15;1770656;80;20128;-76
2021/06/06 10:02:55;;;;;;;;;;;;;;;24.24;43.48;100365.75;1772997;81;20088;-77
2021/06/06 10:05:25;;;;;;;;;;;;;;;24.18;43.61;100365.39;1771924;80;20204;-77
2021/06/06 10:07:58;;;;;;;;;;;;;;;24.14;43.80;100364.77;1771313;81;20172;-77
2021/06/06 10:10:30;;;;;;;;;;;;;;;24.10;44.15;100357.59;1772510;81;20196;-78
2021/06/06 10:12:59;;;;;;;;;;;;;;;24.09;44.37;100357.31;1774330;81;20153;-78
2021/06/06 10:15:35;;;;;;;;;;;;;;;24.07;44.55;100353.98;1774416;80;20426;-77
2021/06/06 10:18:08;;;;;;;;;;;;;;;24.06;44.27;100356.44;1774175;80;20133;-77
2021/06/06 10:20:43;;;;;;;;;;;;;;;24.04;43.88;100360.80;1773060;80;20477;-76
2021/06/06 10:23:26;;;;;;;;;;;;;;;24.04;43.91;100361.34;1772594;81;20173;-76
2021/06/06 10:26:08;;;;;;;;;;;;;;;24.03;43.89;100362.42;1772044;81;20171;-77
2021/06/06 10:28:56;;;;;;;;;;;;;;;24.03;43.64;100361.05;1771405;81;20168;-76
2021/06/06 10:31:33;;;;;;;;;;;;;;;24.03;43.48;100366.53;1772641;81;20541;-76
2021/06/06 10:34:30;;;;;;;;;;;;;;;24.04;43.56;100368.18;1774309;81;20164;-76
2021/06/06 10:36:56;;;;;;;;;;;;;;;24.03;43.62;100367.90;1775571;81;20212;-77
2021/06/06 10:39:27;;;;;;;;;;;;;;;24.00;43.53;100366.48;1773470;81;20298;-76
2021/06/06 10:42:03;;;;;;;;;;;;;;;23.89;43.80;100359.20;1773385;81;20164;-77
2021/06/06 10:44:45;;;;;;;;;;;;;;;23.81;44.26;100369.71;1772842;81;20165;-76
2021/06/06 10:47:15;;;;;;;;;;;;;;;23.78;44.43;100360.91;1762327;80;20195;-77
2021/06/06 10:49:58;;;;;;;;;;;;;;;23.74;44.43;100357.55;1774103;81;20184;-78
2021/06/06 10:52:32;;;;;;;;;;;;;;;23.71;44.52;100355.30;1774338;80;20164;-77
2021/06/06 10:55:03;;;;;;;;;;;;;;;23.69;44.69;100347.35;1773802;80;20196;-77
2021/06/06 10:57:36;;;;;;;;;;;;;;;23.67;44.46;100344.05;1761067;80;20165;-78
2021/06/06 11:00:12;;;;;;;;;;;;;;;23.67;44.44;100341.31;1767473;81;20200;-77
2021/06/06 11:02:41;;;;;;;;;;;;;;;23.70;44.34;100339.97;1767399;81;20176;-77
2021/06/06 11:05:46;;;;;;;;;;;;;;;23.74;44.17;100340.59;1769743;80;20180;-77
2021/06/06 11:08:31;;;;;;;;;;;;;;;23.78;44.21;100328.09;1772890;80;20504;-77
2021/06/06 11:11:22;;;;;;;;;;;;;;;23.84;43.73;100324.89;1757948;81;20177;-77
2021/06/06 11:13:58;;;;;;;;;;;;;;;23.92;43.34;100322.28;1743464;81;20266;-77
2021/06/06 11:16:34;;;;;;;;;;;;;;;23.96;43.20;100313.33;1758873;80;20574;-76
2021/06/06 11:19:20;;;;;;;;;;;;;;;24.02;43.03;100314.23;1758083;80;20462;-76
2021/06/06 11:21:59;;;;;;;;;;;;;;;24.06;43.12;100320.86;1764206;81;20105;-76
2021/06/06 11:24:33;;;;;;;;;;;;;;;24.10;42.96;100310.25;1765159;81;20148;-77
2021/06/06 11:27:17;;;;;;;;;;;;;;;24.17;42.88;100309.00;1789852;80;20144;-77
2021/06/06 11:29:50;;;;;;;;;;;;;;;24.21;43.04;100308.80;1765845;81;20089;-76
2021/06/06 11:32:28;;;;;;;;;;;;;;;24.26;42.88;100297.91;1765387;81;20172;-77
2021/06/06 11:35:19;;;;;;;;;;;;;;;24.31;42.94;100290.31;1765064;81;20477;-77
2021/06/06 11:38:00;;;;;;;;;;;;;;;24.36;42.66;100289.55;1791301;80;20111;-77
2021/06/06 11:40:35;;;;;;;;;;;;;;;24.41;42.39;100287.73;1766272;81;20133;-77
2021/06/06 11:43:10;;;;;;;;;;;;;;;24.48;42.22;100282.05;1765727;81;20161;-77
2021/06/06 11:45:38;;;;;;;;;;;;;;;24.84;41.47;100281.13;1757909;81;20141;-78
2021/06/06 11:48:11;;;;;;;;;;;;;;;25.02;40.78;100278.03;1768782;81;20509;-76
2021/06/06 11:50:47;;;;;;;;;;;;;;;25.09;40.62;100277.33;1751709;81;20140;-77
2021/06/06 11:53:16;;;;;;;;;;;;;;;25.15;40.17;100274.09;1771617;81;20184;-77
2021/06/06 11:55:44;;;;;;;;;;;;;;;25.21;40.16;100272.53;1771686;80;20486;-77
2021/06/06 11:58:19;;;;;;;;;;;;;;;25.26;39.97;100265.72;1771158;81;20502;-77
2021/06/06 12:00:55;;;;;;;;;;;;;;;25.29;39.89;100269.29;1770094;80;20462;-76
2021/06/06 12:03:30;;;;;;;;;;;;;;;25.32;39.75;100263.02;1786356;80;20178;-77
2021/06/06 12:06:03;;;;;;;;;;;;;;;25.35;39.90;100264.70;1772437;79;20170;-78
2021/06/06 12:08:33;;;;;;;;;;;;;;;25.36;40.01;100265.53;1771955;81;20215;-77
2021/06/06 12:11:04;;;;;;;;;;;;;;;25.37;39.96;100262.52;1772021;80;20506;-78
2021/06/06 12:13:40;;;;;;;;;;;;;;;25.38;39.58;100263.34;1770915;80;20228;-78
2021/06/06 12:16:15;;;;;;;;;;;;;;;25.36;39.33;100260.87;1744359;82;20214;-77
2021/06/06 12:18:42;;;;;;;;;;;;;;;25.35;39.61;100258.40;1762492;81;20220;-77
2021/06/06 12:21:20;;;;;;;;;;;;;;;25.34;39.83;100256.72;1733405;80;20183;-78
2021/06/06 12:23:49;;;;;;;;;;;;;;;25.35;39.91;100253.73;1727377;82;20195;-78
2021/06/06 12:26:21;;;;;;;;;;;;;;;25.36;40.20;100249.08;1726854;83;20199;-78
2021/06/06 12:28:49;;;;;;;;;;;;;;;25.30;40.55;100249.59;1725638;83;20100;-77
2021/06/06 12:31:25;;;;;;;;;;;;;;;25.35;40.61;100245.52;1731138;81;20223;-78
2021/06/06 12:33:51;;;;;;;;;;;;;;;25.37;40.65;100246.06;1749965;81;20202;-77
2021/06/06 12:36:22;;;;;;;;;;;;;;;25.37;40.53;100237.84;1750689;82;20182;-78
2021/06/06 12:38:49;;;;;;;;;;;;;;;25.39;40.16;100227.97;1720152;82;20198;-77
2021/06/06 12:41:16;;;;;;;;;;;;;;;25.41;39.78;100229.38;1763935;80;20120;-76
2021/06/06 12:43:45;;;;;;;;;;;;;;;25.43;39.55;100223.07;1769333;80;20784;-76
2021/06/06 12:46:11;;;;;;;;;;;;;;;25.44;39.42;100221.19;1769670;81;20169;-76
2021/06/06 12:48:57;;;;;;;;;;;;;;;25.48;39.43;100219.55;1769988;81;20145;-77
2021/06/06 12:51:26;;;;;;;;;;;;;;;25.48;39.51;100216.80;1769512;81;20169;-77
2021/06/06 12:53:52;;;;;;;;;;;;;;;25.49;39.49;100215.73;1770289;80;20138;-77
2021/06/06 12:56:28;;;;;;;;;;;;;;;25.50;39.46;100216.01;1753545;80;20117;-77